sensor_id;sensor_type;location;lat;lon;timestamp;temperature;humidity
53802;DHT22;39709;53.334;6.534;2022-11-15T00:00:04;6.90;99.90
53802;DHT22;39709;53.334;6.534;2022-11-15T00:02:30;7.10;99.90
53802;DHT22;39709;53.334;6.534;2022-11-15T00:04:56;7.00;99.90
53802;DHT22;39709;53.334;6.534;2022-11-15T00:07:21;7.20;99.90
53802;DHT22;39709;53.334;6.534;2022-11-15T00:09:47;7.20;99.90
53802;DHT22;39709;53.334;6.534;2022-11-15T00:12:13;7.10;99.90
53802;DHT22;39709;53.334;6.534;2022-11-15T00:14:38;7.10;99.90
53802;DHT22;39709;53.334;6.534;2022-11-15T00:17:04;7.00;99.90
53802;DHT22;39709;53.334;6.534;2022-11-15T00:19:30;6.90;99.90
53802;DHT22;39709;53.334;6.534;2022-11-15T00:21:55;7.10;99.90
53802;DHT22;39709;53.334;6.534;2022-11-15T00:24:21;6.90;99.90
53802;DHT22;39709;53.334;6.534;2022-11-15T00:26:47;7.10;99.90
53802;DHT22;39709;53.334;6.534;2022-11-15T00:29:12;6.90;99.90
53802;DHT22;39709;53.334;6.534;2022-11-15T00:31:38;7.00;99.90
53802;DHT22;39709;53.334;6.534;2022-11-15T00:34:04;6.80;99.90
53802;DHT22;39709;53.334;6.534;2022-11-15T00:36:33;6.60;99.90
53802;DHT22;39709;53.334;6.534;2022-11-15T00:38:59;6.60;99.90
53802;DHT22;39709;53.334;6.534;2022-11-15T00:41:25;6.60;99.90
53802;DHT22;39709;53.334;6.534;2022-11-15T00:43:51;6.50;99.90
53802;DHT22;39709;53.334;6.534;2022-11-15T00:46:16;6.20;99.90
53802;DHT22;39709;53.334;6.534;2022-11-15T00:48:42;6.40;99.90
53802;DHT22;39709;53.334;6.534;2022-11-15T00:51:08;6.10;99.90
53802;DHT22;39709;53.334;6.534;2022-11-15T00:53:34;6.50;99.90
53802;DHT22;39709;53.334;6.534;2022-11-15T00:55:59;6.30;99.90
53802;DHT22;39709;53.334;6.534;2022-11-15T00:58:25;6.00;99.90
53802;DHT22;39709;53.334;6.534;2022-11-15T01:00:51;6.10;99.90
53802;DHT22;39709;53.334;6.534;2022-11-15T01:03:17;6.10;99.90
53802;DHT22;39709;53.334;6.534;2022-11-15T01:05:42;6.40;99.90
53802;DHT22;39709;53.334;6.534;2022-11-15T01:08:15;6.10;99.90
53802;DHT22;39709;53.334;6.534;2022-11-15T01:10:41;5.90;99.90
53802;DHT22;39709;53.334;6.534;2022-11-15T01:13:07;6.50;99.90
53802;DHT22;39709;53.334;6.534;2022-11-15T01:15:33;5.90;99.90
53802;DHT22;39709;53.334;6.534;2022-11-15T01:17:59;6.00;99.90
53802;DHT22;39709;53.334;6.534;2022-11-15T01:20:24;6.10;99.90
53802;DHT22;39709;53.334;6.534;2022-11-15T01:22:50;5.90;99.90
53802;DHT22;39709;53.334;6.534;2022-11-15T01:25:15;5.90;99.90
53802;DHT22;39709;53.334;6.534;2022-11-15T01:27:41;5.90;99.90
53802;DHT22;39709;53.334;6.534;2022-11-15T01:30:07;6.20;99.90
53802;DHT22;39709;53.334;6.534;2022-11-15T01:32:34;5.90;99.90
53802;DHT22;39709;53.334;6.534;2022-11-15T01:34:59;5.90;99.90
53802;DHT22;39709;53.334;6.534;2022-11-15T01:37:25;5.80;99.90
53802;DHT22;39709;53.334;6.534;2022-11-15T01:39:51;5.60;99.90
53802;DHT22;39709;53.334;6.534;2022-11-15T01:42:16;5.90;99.90
53802;DHT22;39709;53.334;6.534;2022-11-15T01:44:47;5.80;99.90
53802;DHT22;39709;53.334;6.534;2022-11-15T01:47:17;5.70;99.90
53802;DHT22;39709;53.334;6.534;2022-11-15T01:52:20;6.50;99.90
53802;DHT22;39709;53.334;6.534;2022-11-15T01:54:50;5.80;99.90
53802;DHT22;39709;53.334;6.534;2022-11-15T01:57:17;6.00;99.90
53802;DHT22;39709;53.334;6.534;2022-11-15T01:59:44;6.30;99.90
53802;DHT22;39709;53.334;6.534;2022-11-15T02:02:11;6.30;99.90
53802;DHT22;39709;53.334;6.534;2022-11-15T02:04:46;6.50;99.90
53802;DHT22;39709;53.334;6.534;2022-11-15T02:07:15;6.60;99.90
53802;DHT22;39709;53.334;6.534;2022-11-15T02:09:41;6.50;99.90
53802;DHT22;39709;53.334;6.534;2022-11-15T02:12:09;6.70;99.90
53802;DHT22;39709;53.334;6.534;2022-11-15T02:14:36;6.70;99.90
53802;DHT22;39709;53.334;6.534;2022-11-15T02:25:03;7.00;99.90
53802;DHT22;39709;53.334;6.534;2022-11-15T02:33:24;7.00;99.90
53802;DHT22;39709;53.334;6.534;2022-11-15T02:35:57;7.00;99.90
53802;DHT22;39709;53.334;6.534;2022-11-15T02:41:13;6.90;99.90
53802;DHT22;39709;53.334;6.534;2022-11-15T02:43:46;7.20;99.90
53802;DHT22;39709;53.334;6.534;2022-11-15T02:46:31;7.00;99.90
53802;DHT22;39709;53.334;6.534;2022-11-15T02:49:17;7.00;99.90
53802;DHT22;39709;53.334;6.534;2022-11-15T02:51:45;6.80;99.90
53802;DHT22;39709;53.334;6.534;2022-11-15T02:54:15;7.00;99.90
53802;DHT22;39709;53.334;6.534;2022-11-15T02:56:43;6.80;99.90
53802;DHT22;39709;53.334;6.534;2022-11-15T03:02:18;6.90;99.90
53802;DHT22;39709;53.334;6.534;2022-11-15T03:05:18;6.80;99.90
53802;DHT22;39709;53.334;6.534;2022-11-15T03:08:09;7.00;99.90
53802;DHT22;39709;53.334;6.534;2022-11-15T03:16:41;6.80;99.90
53802;DHT22;39709;53.334;6.534;2022-11-15T03:19:20;6.90;99.90
53802;DHT22;39709;53.334;6.534;2022-11-15T03:21:49;7.20;99.90
53802;DHT22;39709;53.334;6.534;2022-11-15T03:24:19;7.50;99.90
53802;DHT22;39709;53.334;6.534;2022-11-15T03:26:48;7.00;99.90
53802;DHT22;39709;53.334;6.534;2022-11-15T03:29:19;6.90;99.90
53802;DHT22;39709;53.334;6.534;2022-11-15T03:31:54;6.90;99.90
53802;DHT22;39709;53.334;6.534;2022-11-15T03:36:51;6.70;99.90
53802;DHT22;39709;53.334;6.534;2022-11-15T03:39:18;6.70;99.90
53802;DHT22;39709;53.334;6.534;2022-11-15T03:46:59;7.00;99.90
53802;DHT22;39709;53.334;6.534;2022-11-15T03:49:33;6.70;99.90
53802;DHT22;39709;53.334;6.534;2022-11-15T03:52:00;6.80;99.90
53802;DHT22;39709;53.334;6.534;2022-11-15T03:54:27;7.20;99.90
53802;DHT22;39709;53.334;6.534;2022-11-15T03:56:52;6.80;99.90
53802;DHT22;39709;53.334;6.534;2022-11-15T03:59:18;7.10;99.90
53802;DHT22;39709;53.334;6.534;2022-11-15T04:01:44;7.00;99.90
53802;DHT22;39709;53.334;6.534;2022-11-15T04:04:09;7.00;99.90
53802;DHT22;39709;53.334;6.534;2022-11-15T04:06:35;7.00;99.90
53802;DHT22;39709;53.334;6.534;2022-11-15T04:09:01;6.80;99.90
53802;DHT22;39709;53.334;6.534;2022-11-15T04:11:26;7.00;99.90
53802;DHT22;39709;53.334;6.534;2022-11-15T04:13:52;7.10;99.90
53802;DHT22;39709;53.334;6.534;2022-11-15T04:16:17;7.00;99.90
53802;DHT22;39709;53.334;6.534;2022-11-15T04:18:43;6.90;99.90
53802;DHT22;39709;53.334;6.534;2022-11-15T04:21:09;6.90;99.90
53802;DHT22;39709;53.334;6.534;2022-11-15T04:23:53;6.90;99.90
53802;DHT22;39709;53.334;6.534;2022-11-15T04:26:30;7.00;99.90
53802;DHT22;39709;53.334;6.534;2022-11-15T04:28:56;7.30;99.90
53802;DHT22;39709;53.334;6.534;2022-11-15T04:31:40;7.10;99.90
53802;DHT22;39709;53.334;6.534;2022-11-15T04:34:06;7.20;99.90
53802;DHT22;39709;53.334;6.534;2022-11-15T04:36:32;7.10;99.90
53802;DHT22;39709;53.334;6.534;2022-11-15T04:39:16;7.20;99.90
53802;DHT22;39709;53.334;6.534;2022-11-15T04:41:42;7.00;99.90
53802;DHT22;39709;53.334;6.534;2022-11-15T04:44:08;7.20;99.90
53802;DHT22;39709;53.334;6.534;2022-11-15T04:46:33;7.20;99.90
53802;DHT22;39709;53.334;6.534;2022-11-15T04:48:59;7.00;99.90
53802;DHT22;39709;53.334;6.534;2022-11-15T04:51:25;7.30;99.90
53802;DHT22;39709;53.334;6.534;2022-11-15T04:53:50;7.00;99.90
53802;DHT22;39709;53.334;6.534;2022-11-15T04:56:16;7.30;99.90
53802;DHT22;39709;53.334;6.534;2022-11-15T04:58:42;7.20;99.90
53802;DHT22;39709;53.334;6.534;2022-11-15T05:01:09;7.10;99.90
53802;DHT22;39709;53.334;6.534;2022-11-15T05:03:34;7.20;99.90
53802;DHT22;39709;53.334;6.534;2022-11-15T05:06:19;7.30;99.90
53802;DHT22;39709;53.334;6.534;2022-11-15T05:08:44;7.30;99.90
53802;DHT22;39709;53.334;6.534;2022-11-15T05:11:10;7.10;99.90
53802;DHT22;39709;53.334;6.534;2022-11-15T05:13:36;7.20;99.90
53802;DHT22;39709;53.334;6.534;2022-11-15T05:16:01;7.10;99.90
53802;DHT22;39709;53.334;6.534;2022-11-15T05:18:27;7.10;99.90
53802;DHT22;39709;53.334;6.534;2022-11-15T05:20:53;7.20;99.90
53802;DHT22;39709;53.334;6.534;2022-11-15T05:23:18;7.20;99.90
53802;DHT22;39709;53.334;6.534;2022-11-15T05:25:44;7.30;99.90
53802;DHT22;39709;53.334;6.534;2022-11-15T05:28:10;7.40;99.90
53802;DHT22;39709;53.334;6.534;2022-11-15T05:30:35;7.30;99.90
53802;DHT22;39709;53.334;6.534;2022-11-15T05:33:01;7.40;99.90
53802;DHT22;39709;53.334;6.534;2022-11-15T05:35:32;7.30;99.90
53802;DHT22;39709;53.334;6.534;2022-11-15T05:37:59;7.30;99.90
53802;DHT22;39709;53.334;6.534;2022-11-15T05:40:26;7.70;99.90
53802;DHT22;39709;53.334;6.534;2022-11-15T05:42:52;7.40;99.90
53802;DHT22;39709;53.334;6.534;2022-11-15T05:45:18;7.70;99.90
53802;DHT22;39709;53.334;6.534;2022-11-15T05:47:44;7.60;99.90
53802;DHT22;39709;53.334;6.534;2022-11-15T05:50:15;7.90;99.90
53802;DHT22;39709;53.334;6.534;2022-11-15T05:52:42;7.80;99.90
53802;DHT22;39709;53.334;6.534;2022-11-15T05:55:08;7.60;99.90
53802;DHT22;39709;53.334;6.534;2022-11-15T05:57:34;7.80;99.90
53802;DHT22;39709;53.334;6.534;2022-11-15T06:00:01;7.70;99.90
53802;DHT22;39709;53.334;6.534;2022-11-15T06:02:26;8.00;99.90
53802;DHT22;39709;53.334;6.534;2022-11-15T06:04:52;8.10;99.90
53802;DHT22;39709;53.334;6.534;2022-11-15T06:07:18;8.20;99.90
53802;DHT22;39709;53.334;6.534;2022-11-15T06:09:43;7.80;99.90
53802;DHT22;39709;53.334;6.534;2022-11-15T06:12:09;7.80;99.90
53802;DHT22;39709;53.334;6.534;2022-11-15T06:14:35;7.90;99.90
53802;DHT22;39709;53.334;6.534;2022-11-15T06:17:00;7.80;99.90
53802;DHT22;39709;53.334;6.534;2022-11-15T06:19:27;8.10;99.90
53802;DHT22;39709;53.334;6.534;2022-11-15T06:21:53;8.00;99.90
53802;DHT22;39709;53.334;6.534;2022-11-15T06:24:18;8.20;99.90
53802;DHT22;39709;53.334;6.534;2022-11-15T06:26:44;8.10;99.90
53802;DHT22;39709;53.334;6.534;2022-11-15T06:29:09;8.30;99.90
53802;DHT22;39709;53.334;6.534;2022-11-15T06:31:35;7.90;99.90
53802;DHT22;39709;53.334;6.534;2022-11-15T06:34:01;7.90;99.90
53802;DHT22;39709;53.334;6.534;2022-11-15T06:36:27;7.90;99.90
53802;DHT22;39709;53.334;6.534;2022-11-15T06:38:52;8.20;99.90
53802;DHT22;39709;53.334;6.534;2022-11-15T06:41:18;8.20;99.90
53802;DHT22;39709;53.334;6.534;2022-11-15T06:43:44;8.20;99.90
53802;DHT22;39709;53.334;6.534;2022-11-15T06:46:09;8.10;99.90
53802;DHT22;39709;53.334;6.534;2022-11-15T06:48:35;8.00;99.90
53802;DHT22;39709;53.334;6.534;2022-11-15T06:51:04;8.10;99.90
53802;DHT22;39709;53.334;6.534;2022-11-15T06:53:31;8.30;99.90
53802;DHT22;39709;53.334;6.534;2022-11-15T06:56:01;8.30;99.90
53802;DHT22;39709;53.334;6.534;2022-11-15T06:58:27;8.20;99.90
53802;DHT22;39709;53.334;6.534;2022-11-15T07:00:57;8.30;99.90
53802;DHT22;39709;53.334;6.534;2022-11-15T07:03:23;8.10;99.90
53802;DHT22;39709;53.334;6.534;2022-11-15T07:05:55;8.40;99.90
53802;DHT22;39709;53.334;6.534;2022-11-15T07:08:23;8.30;99.90
53802;DHT22;39709;53.334;6.534;2022-11-15T07:10:49;8.40;99.90
53802;DHT22;39709;53.334;6.534;2022-11-15T07:13:15;8.20;99.90
53802;DHT22;39709;53.334;6.534;2022-11-15T07:15:41;8.20;99.90
53802;DHT22;39709;53.334;6.534;2022-11-15T07:18:07;8.50;99.90
53802;DHT22;39709;53.334;6.534;2022-11-15T07:20:32;8.50;99.90
53802;DHT22;39709;53.334;6.534;2022-11-15T07:23:03;8.30;99.90
53802;DHT22;39709;53.334;6.534;2022-11-15T07:25:29;8.40;99.90
53802;DHT22;39709;53.334;6.534;2022-11-15T07:27:56;8.50;99.90
53802;DHT22;39709;53.334;6.534;2022-11-15T07:30:22;8.70;99.90
53802;DHT22;39709;53.334;6.534;2022-11-15T07:32:58;8.50;99.90
53802;DHT22;39709;53.334;6.534;2022-11-15T07:35:25;8.60;99.90
53802;DHT22;39709;53.334;6.534;2022-11-15T07:37:59;8.80;99.90
53802;DHT22;39709;53.334;6.534;2022-11-15T07:40:27;9.00;99.90
53802;DHT22;39709;53.334;6.534;2022-11-15T07:43:02;9.00;99.90
53802;DHT22;39709;53.334;6.534;2022-11-15T07:45:29;8.90;99.90
53802;DHT22;39709;53.334;6.534;2022-11-15T07:47:55;8.90;99.90
53802;DHT22;39709;53.334;6.534;2022-11-15T07:50:22;9.20;99.90
53802;DHT22;39709;53.334;6.534;2022-11-15T07:52:56;9.00;99.90
53802;DHT22;39709;53.334;6.534;2022-11-15T07:55:23;9.30;99.90
53802;DHT22;39709;53.334;6.534;2022-11-15T07:57:49;9.20;99.90
53802;DHT22;39709;53.334;6.534;2022-11-15T08:00:15;9.30;99.90
53802;DHT22;39709;53.334;6.534;2022-11-15T08:02:41;9.20;99.90
53802;DHT22;39709;53.334;6.534;2022-11-15T08:05:08;9.50;99.90
53802;DHT22;39709;53.334;6.534;2022-11-15T08:07:33;9.30;99.90
53802;DHT22;39709;53.334;6.534;2022-11-15T08:10:00;9.20;99.90
53802;DHT22;39709;53.334;6.534;2022-11-15T08:12:29;9.30;99.90
53802;DHT22;39709;53.334;6.534;2022-11-15T08:14:55;9.70;99.90
53802;DHT22;39709;53.334;6.534;2022-11-15T08:17:25;9.80;99.90
53802;DHT22;39709;53.334;6.534;2022-11-15T08:19:51;9.70;99.90
53802;DHT22;39709;53.334;6.534;2022-11-15T08:22:17;9.80;99.90
53802;DHT22;39709;53.334;6.534;2022-11-15T08:24:43;9.40;99.90
53802;DHT22;39709;53.334;6.534;2022-11-15T08:27:09;9.80;99.90
53802;DHT22;39709;53.334;6.534;2022-11-15T08:29:45;9.60;99.90
53802;DHT22;39709;53.334;6.534;2022-11-15T08:32:13;9.80;99.90
53802;DHT22;39709;53.334;6.534;2022-11-15T08:34:38;9.60;99.90
53802;DHT22;39709;53.334;6.534;2022-11-15T08:37:04;10.00;99.90
53802;DHT22;39709;53.334;6.534;2022-11-15T08:39:30;9.90;99.90
53802;DHT22;39709;53.334;6.534;2022-11-15T08:41:56;9.70;99.90
53802;DHT22;39709;53.334;6.534;2022-11-15T08:44:22;9.90;99.90
53802;DHT22;39709;53.334;6.534;2022-11-15T08:46:47;9.80;99.90
53802;DHT22;39709;53.334;6.534;2022-11-15T08:49:13;10.20;99.90
53802;DHT22;39709;53.334;6.534;2022-11-15T08:51:39;9.90;99.90
53802;DHT22;39709;53.334;6.534;2022-11-15T08:54:04;10.50;99.90
53802;DHT22;39709;53.334;6.534;2022-11-15T08:56:30;10.00;99.90
53802;DHT22;39709;53.334;6.534;2022-11-15T08:58:56;10.60;99.90
53802;DHT22;39709;53.334;6.534;2022-11-15T09:01:22;10.30;99.90
53802;DHT22;39709;53.334;6.534;2022-11-15T09:03:48;10.70;99.90
53802;DHT22;39709;53.334;6.534;2022-11-15T09:06:14;10.30;99.90
53802;DHT22;39709;53.334;6.534;2022-11-15T09:08:40;10.60;99.90
53802;DHT22;39709;53.334;6.534;2022-11-15T09:11:08;10.70;99.90
53802;DHT22;39709;53.334;6.534;2022-11-15T09:13:35;10.20;99.90
53802;DHT22;39709;53.334;6.534;2022-11-15T09:16:03;10.30;99.90
53802;DHT22;39709;53.334;6.534;2022-11-15T09:18:29;10.30;99.90
53802;DHT22;39709;53.334;6.534;2022-11-15T09:20:56;10.90;99.90
53802;DHT22;39709;53.334;6.534;2022-11-15T09:23:22;10.40;99.90
53802;DHT22;39709;53.334;6.534;2022-11-15T09:25:48;10.70;99.90
53802;DHT22;39709;53.334;6.534;2022-11-15T09:28:14;10.60;99.90
53802;DHT22;39709;53.334;6.534;2022-11-15T09:30:39;10.60;99.90
53802;DHT22;39709;53.334;6.534;2022-11-15T09:33:10;11.10;99.90
53802;DHT22;39709;53.334;6.534;2022-11-15T09:35:36;11.00;99.90
53802;DHT22;39709;53.334;6.534;2022-11-15T09:38:02;11.10;99.90
53802;DHT22;39709;53.334;6.534;2022-11-15T09:40:30;11.00;99.90
53802;DHT22;39709;53.334;6.534;2022-11-15T09:45:42;11.10;99.90
53802;DHT22;39709;53.334;6.534;2022-11-15T09:48:50;11.00;99.90
53802;DHT22;39709;53.334;6.534;2022-11-15T09:51:28;10.90;99.90
53802;DHT22;39709;53.334;6.534;2022-11-15T09:56:38;10.90;99.90
53802;DHT22;39709;53.334;6.534;2022-11-15T10:04:41;11.10;99.90
53802;DHT22;39709;53.334;6.534;2022-11-15T10:07:31;11.00;99.90
53802;DHT22;39709;53.334;6.534;2022-11-15T10:10:15;11.20;99.90
53802;DHT22;39709;53.334;6.534;2022-11-15T10:12:47;11.20;99.90
53802;DHT22;39709;53.334;6.534;2022-11-15T10:15:16;11.50;99.90
53802;DHT22;39709;53.334;6.534;2022-11-15T10:20:23;11.40;99.90
53802;DHT22;39709;53.334;6.534;2022-11-15T10:22:51;11.60;99.90
53802;DHT22;39709;53.334;6.534;2022-11-15T10:25:25;11.60;99.90
53802;DHT22;39709;53.334;6.534;2022-11-15T10:30:55;11.50;99.90
53802;DHT22;39709;53.334;6.534;2022-11-15T10:33:38;11.70;99.90
53802;DHT22;39709;53.334;6.534;2022-11-15T10:36:18;11.30;99.90
53802;DHT22;39709;53.334;6.534;2022-11-15T10:41:28;11.30;99.90
53802;DHT22;39709;53.334;6.534;2022-11-15T10:44:08;11.30;99.90
53802;DHT22;39709;53.334;6.534;2022-11-15T10:46:36;11.60;99.90
53802;DHT22;39709;53.334;6.534;2022-11-15T10:49:21;11.70;99.90
53802;DHT22;39709;53.334;6.534;2022-11-15T10:52:04;11.50;99.90
53802;DHT22;39709;53.334;6.534;2022-11-15T10:54:50;11.70;99.90
53802;DHT22;39709;53.334;6.534;2022-11-15T10:57:26;11.60;99.90
53802;DHT22;39709;53.334;6.534;2022-11-15T10:59:55;11.80;99.90
53802;DHT22;39709;53.334;6.534;2022-11-15T11:04:54;11.90;99.90
53802;DHT22;39709;53.334;6.534;2022-11-15T11:07:25;11.60;99.90
53802;DHT22;39709;53.334;6.534;2022-11-15T11:12:33;11.70;99.90
53802;DHT22;39709;53.334;6.534;2022-11-15T11:15:02;11.90;99.90
53802;DHT22;39709;53.334;6.534;2022-11-15T11:23:19;11.60;99.90
53802;DHT22;39709;53.334;6.534;2022-11-15T11:36:40;11.60;99.90
53802;DHT22;39709;53.334;6.534;2022-11-15T11:42:40;11.80;99.90
53802;DHT22;39709;53.334;6.534;2022-11-15T11:47:44;11.80;99.90
53802;DHT22;39709;53.334;6.534;2022-11-15T11:50:25;12.00;99.90
53802;DHT22;39709;53.334;6.534;2022-11-15T11:53:01;12.00;99.90
53802;DHT22;39709;53.334;6.534;2022-11-15T11:55:36;11.80;99.90
53802;DHT22;39709;53.334;6.534;2022-11-15T11:58:19;12.00;99.90
53802;DHT22;39709;53.334;6.534;2022-11-15T12:00:54;12.00;99.90
53802;DHT22;39709;53.334;6.534;2022-11-15T12:03:43;12.20;99.90
53802;DHT22;39709;53.334;6.534;2022-11-15T12:06:33;12.10;99.90
53802;DHT22;39709;53.334;6.534;2022-11-15T12:09:14;12.50;99.90
53802;DHT22;39709;53.334;6.534;2022-11-15T12:11:52;12.60;99.90
53802;DHT22;39709;53.334;6.534;2022-11-15T12:14:42;12.30;99.90
53802;DHT22;39709;53.334;6.534;2022-11-15T12:17:11;12.50;99.90
53802;DHT22;39709;53.334;6.534;2022-11-15T12:19:38;12.50;99.90
53802;DHT22;39709;53.334;6.534;2022-11-15T12:22:24;12.60;99.90
53802;DHT22;39709;53.334;6.534;2022-11-15T12:24:57;12.60;99.90
53802;DHT22;39709;53.334;6.534;2022-11-15T12:27:38;12.40;99.90
53802;DHT22;39709;53.334;6.534;2022-11-15T12:30:16;12.30;99.90
53802;DHT22;39709;53.334;6.534;2022-11-15T12:32:59;12.20;99.90
53802;DHT22;39709;53.334;6.534;2022-11-15T12:35:36;12.30;99.90
53802;DHT22;39709;53.334;6.534;2022-11-15T12:38:03;12.00;99.90
53802;DHT22;39709;53.334;6.534;2022-11-15T12:40:37;12.00;99.90
53802;DHT22;39709;53.334;6.534;2022-11-15T12:45:42;12.10;99.90
53802;DHT22;39709;53.334;6.534;2022-11-15T13:14:59;11.90;90.20
53802;DHT22;39709;53.334;6.534;2022-11-15T13:17:37;12.00;92.60
53802;DHT22;39709;53.334;6.534;2022-11-15T13:23:01;12.50;99.90
53802;DHT22;39709;53.334;6.534;2022-11-15T13:33:34;12.70;73.30
53802;DHT22;39709;53.334;6.534;2022-11-15T13:36:12;12.60;69.30
53802;DHT22;39709;53.334;6.534;2022-11-15T13:38:42;12.50;22.10
53802;DHT22;39709;53.334;6.534;2022-11-15T13:41:20;12.60;96.50
53802;DHT22;39709;53.334;6.534;2022-11-15T13:43:48;12.40;57.50
53802;DHT22;39709;53.334;6.534;2022-11-15T13:48:46;12.20;23.90
53802;DHT22;39709;53.334;6.534;2022-11-15T13:51:36;12.30;99.80
53802;DHT22;39709;53.334;6.534;2022-11-15T13:57:05;11.80;1.00
53802;DHT22;39709;53.334;6.534;2022-11-15T13:59:37;11.90;8.90
53802;DHT22;39709;53.334;6.534;2022-11-15T14:02:14;11.70;9.70
53802;DHT22;39709;53.334;6.534;2022-11-15T14:07:39;11.60;1.00
53802;DHT22;39709;53.334;6.534;2022-11-15T14:10:51;11.60;8.70
53802;DHT22;39709;53.334;6.534;2022-11-15T14:13:30;11.50;1.00
53802;DHT22;39709;53.334;6.534;2022-11-15T14:16:21;11.40;9.20
53802;DHT22;39709;53.334;6.534;2022-11-15T14:18:57;11.30;10.10
53802;DHT22;39709;53.334;6.534;2022-11-15T14:21:23;11.30;21.60
53802;DHT22;39709;53.334;6.534;2022-11-15T14:23:49;11.10;32.50
53802;DHT22;39709;53.334;6.534;2022-11-15T14:26:33;11.00;39.80
53802;DHT22;39709;53.334;6.534;2022-11-15T14:29:27;11.00;41.20
53802;DHT22;39709;53.334;6.534;2022-11-15T14:32:05;11.00;47.90
53802;DHT22;39709;53.334;6.534;2022-11-15T14:34:32;10.90;49.70
53802;DHT22;39709;53.334;6.534;2022-11-15T14:36:58;10.70;69.40
53802;DHT22;39709;53.334;6.534;2022-11-15T14:39:23;10.80;79.10
53802;DHT22;39709;53.334;6.534;2022-11-15T14:41:50;10.60;81.60
53802;DHT22;39709;53.334;6.534;2022-11-15T14:44:16;10.70;88.10
53802;DHT22;39709;53.334;6.534;2022-11-15T14:46:44;10.60;91.90
53802;DHT22;39709;53.334;6.534;2022-11-15T14:49:09;10.40;96.90
53802;DHT22;39709;53.334;6.534;2022-11-15T14:51:35;10.40;96.10
53802;DHT22;39709;53.334;6.534;2022-11-15T14:54:01;10.40;98.00
53802;DHT22;39709;53.334;6.534;2022-11-15T14:56:27;10.20;99.90
53802;DHT22;39709;53.334;6.534;2022-11-15T14:58:52;10.30;99.90
53802;DHT22;39709;53.334;6.534;2022-11-15T15:01:25;10.10;99.90
53802;DHT22;39709;53.334;6.534;2022-11-15T15:03:51;10.20;99.90
53802;DHT22;39709;53.334;6.534;2022-11-15T15:06:18;10.00;99.90
53802;DHT22;39709;53.334;6.534;2022-11-15T15:08:44;10.00;99.90
53802;DHT22;39709;53.334;6.534;2022-11-15T15:11:15;10.00;99.90
53802;DHT22;39709;53.334;6.534;2022-11-15T15:13:41;9.80;99.90
53802;DHT22;39709;53.334;6.534;2022-11-15T15:16:07;10.00;99.90
53802;DHT22;39709;53.334;6.534;2022-11-15T15:18:33;9.80;99.90
53802;DHT22;39709;53.334;6.534;2022-11-15T15:20:59;9.80;99.90
53802;DHT22;39709;53.334;6.534;2022-11-15T15:23:32;9.70;99.90
53802;DHT22;39709;53.334;6.534;2022-11-15T15:25:58;9.70;99.90
53802;DHT22;39709;53.334;6.534;2022-11-15T15:28:24;9.70;99.90
53802;DHT22;39709;53.334;6.534;2022-11-15T15:30:50;9.50;99.90
53802;DHT22;39709;53.334;6.534;2022-11-15T15:33:16;9.50;99.90
53802;DHT22;39709;53.334;6.534;2022-11-15T15:35:42;9.50;99.90
53802;DHT22;39709;53.334;6.534;2022-11-15T15:38:13;9.40;99.90
53802;DHT22;39709;53.334;6.534;2022-11-15T15:40:40;9.40;99.90
53802;DHT22;39709;53.334;6.534;2022-11-15T15:43:06;9.60;99.90
53802;DHT22;39709;53.334;6.534;2022-11-15T15:45:38;9.50;99.90
53802;DHT22;39709;53.334;6.534;2022-11-15T15:48:05;9.50;99.90
53802;DHT22;39709;53.334;6.534;2022-11-15T15:50:34;9.30;99.90
53802;DHT22;39709;53.334;6.534;2022-11-15T15:53:02;9.40;99.90
53802;DHT22;39709;53.334;6.534;2022-11-15T15:55:28;9.90;99.90
53802;DHT22;39709;53.334;6.534;2022-11-15T15:57:54;9.80;99.90
53802;DHT22;39709;53.334;6.534;2022-11-15T16:00:21;10.20;99.90
53802;DHT22;39709;53.334;6.534;2022-11-15T16:02:49;10.30;99.90
53802;DHT22;39709;53.334;6.534;2022-11-15T16:05:15;10.20;99.90
53802;DHT22;39709;53.334;6.534;2022-11-15T16:07:41;10.10;99.90
53802;DHT22;39709;53.334;6.534;2022-11-15T16:12:46;10.00;99.90
53802;DHT22;39709;53.334;6.534;2022-11-15T16:15:12;10.30;99.90
53802;DHT22;39709;53.334;6.534;2022-11-15T16:17:42;10.20;99.90
53802;DHT22;39709;53.334;6.534;2022-11-15T16:22:54;10.10;99.90
53802;DHT22;39709;53.334;6.534;2022-11-15T16:25:19;10.20;99.90
53802;DHT22;39709;53.334;6.534;2022-11-15T16:27:45;9.70;99.90
53802;DHT22;39709;53.334;6.534;2022-11-15T16:30:17;9.90;99.90
53802;DHT22;39709;53.334;6.534;2022-11-15T16:32:43;10.00;99.90
53802;DHT22;39709;53.334;6.534;2022-11-15T16:35:13;10.00;99.90
53802;DHT22;39709;53.334;6.534;2022-11-15T16:37:39;10.00;99.90
53802;DHT22;39709;53.334;6.534;2022-11-15T16:40:30;9.90;99.90
53802;DHT22;39709;53.334;6.534;2022-11-15T16:42:57;10.00;99.90
53802;DHT22;39709;53.334;6.534;2022-11-15T16:45:25;10.10;99.90
53802;DHT22;39709;53.334;6.534;2022-11-15T16:47:52;9.80;99.90
53802;DHT22;39709;53.334;6.534;2022-11-15T16:50:27;9.70;99.90
53802;DHT22;39709;53.334;6.534;2022-11-15T16:52:55;9.80;99.90
53802;DHT22;39709;53.334;6.534;2022-11-15T16:55:23;9.80;99.90
53802;DHT22;39709;53.334;6.534;2022-11-15T16:57:49;9.90;99.90
53802;DHT22;39709;53.334;6.534;2022-11-15T17:00:16;10.10;99.90
53802;DHT22;39709;53.334;6.534;2022-11-15T17:02:47;10.10;99.90
53802;DHT22;39709;53.334;6.534;2022-11-15T17:05:14;10.00;99.90
53802;DHT22;39709;53.334;6.534;2022-11-15T17:07:40;10.00;99.90
53802;DHT22;39709;53.334;6.534;2022-11-15T17:10:08;10.20;99.90
53802;DHT22;39709;53.334;6.534;2022-11-15T17:12:34;9.90;99.90
53802;DHT22;39709;53.334;6.534;2022-11-15T17:15:01;10.00;99.90
53802;DHT22;39709;53.334;6.534;2022-11-15T17:17:26;9.80;99.90
53802;DHT22;39709;53.334;6.534;2022-11-15T17:19:53;10.10;99.90
53802;DHT22;39709;53.334;6.534;2022-11-15T17:22:19;10.10;99.90
53802;DHT22;39709;53.334;6.534;2022-11-15T17:24:45;10.30;99.90
53802;DHT22;39709;53.334;6.534;2022-11-15T17:27:10;10.20;99.90
53802;DHT22;39709;53.334;6.534;2022-11-15T17:29:36;10.00;99.90
53802;DHT22;39709;53.334;6.534;2022-11-15T17:32:02;10.00;99.90
53802;DHT22;39709;53.334;6.534;2022-11-15T17:34:27;9.80;81.70
53802;DHT22;39709;53.334;6.534;2022-11-15T17:36:53;10.10;99.90
53802;DHT22;39709;53.334;6.534;2022-11-15T17:39:19;10.00;75.80
53802;DHT22;39709;53.334;6.534;2022-11-15T17:41:45;10.00;53.40
53802;DHT22;39709;53.334;6.534;2022-11-15T17:44:12;9.80;11.60
53802;DHT22;39709;53.334;6.534;2022-11-15T17:46:37;9.80;19.80
53802;DHT22;39709;53.334;6.534;2022-11-15T17:49:05;9.80;5.50
53802;DHT22;39709;53.334;6.534;2022-11-15T17:51:31;9.70;4.50
53802;DHT22;39709;53.334;6.534;2022-11-15T17:53:56;9.80;6.30
53802;DHT22;39709;53.334;6.534;2022-11-15T17:56:24;9.80;1.00
53802;DHT22;39709;53.334;6.534;2022-11-15T17:58:52;9.80;24.40
53802;DHT22;39709;53.334;6.534;2022-11-15T18:01:29;9.70;1.00
53802;DHT22;39709;53.334;6.534;2022-11-15T18:03:56;9.80;1.00
53802;DHT22;39709;53.334;6.534;2022-11-15T18:06:23;9.80;46.50
53802;DHT22;39709;53.334;6.534;2022-11-15T18:08:50;9.80;31.50